sensor_id;sensor_type;location;lat;lon;timestamp;pressure;altitude;pressure_sealevel;temperature;humidity
41947;BME280;27638;42.184;24.848;2023-03-04T00:01:30;100000.84;;;7.98;87.54
41947;BME280;27638;42.184;24.848;2023-03-04T00:03:55;99991.97;;;7.80;87.48
41947;BME280;27638;42.184;24.848;2023-03-04T00:06:20;99998.78;;;7.82;88.27
41947;BME280;27638;42.184;24.848;2023-03-04T00:08:46;99990.03;;;7.82;87.52
41947;BME280;27638;42.184;24.848;2023-03-04T00:11:11;100000.28;;;7.65;87.25
41947;BME280;27638;42.184;24.848;2023-03-04T00:13:37;99996.41;;;7.60;88.47
41947;BME280;27638;42.184;24.848;2023-03-04T00:16:02;99997.63;;;7.56;88.02
41947;BME280;27638;42.184;24.848;2023-03-04T00:18:27;99999.72;;;7.52;87.88
41947;BME280;27638;42.184;24.848;2023-03-04T00:20:53;100003.31;;;7.42;87.81
41947;BME280;27638;42.184;24.848;2023-03-04T00:23:18;99997.63;;;7.46;87.13
41947;BME280;27638;42.184;24.848;2023-03-04T00:25:44;99996.94;;;7.44;87.20
41947;BME280;27638;42.184;24.848;2023-03-04T00:28:09;99991.13;;;7.50;87.56
41947;BME280;27638;42.184;24.848;2023-03-04T00:30:34;99998.59;;;7.55;87.51
41947;BME280;27638;42.184;24.848;2023-03-04T00:33:00;100003.88;;;7.55;86.46
41947;BME280;27638;42.184;24.848;2023-03-04T00:35:25;100000.69;;;7.51;86.48
41947;BME280;27638;42.184;24.848;2023-03-04T00:37:51;100000.28;;;7.56;87.21
41947;BME280;27638;42.184;24.848;2023-03-04T00:40:17;99992.91;;;7.40;87.16
41947;BME280;27638;42.184;24.848;2023-03-04T00:42:42;99984.50;;;7.16;88.58
41947;BME280;27638;42.184;24.848;2023-03-04T00:45:08;99990.78;;;6.94;89.96
41947;BME280;27638;42.184;24.848;2023-03-04T00:47:34;99985.66;;;6.92;91.11
41947;BME280;27638;42.184;24.848;2023-03-04T00:49:59;99986.78;;;6.99;90.88
41947;BME280;27638;42.184;24.848;2023-03-04T00:52:24;99985.03;;;7.10;90.32
41947;BME280;27638;42.184;24.848;2023-03-04T00:54:50;99983.56;;;6.86;89.23
41947;BME280;27638;42.184;24.848;2023-03-04T00:57:15;99983.59;;;6.65;91.64
41947;BME280;27638;42.184;24.848;2023-03-04T00:59:41;99982.56;;;6.26;91.93
41947;BME280;27638;42.184;24.848;2023-03-04T01:02:08;99979.44;;;6.63;92.31
41947;BME280;27638;42.184;24.848;2023-03-04T01:04:34;99986.47;;;6.83;91.43
41947;BME280;27638;42.184;24.848;2023-03-04T01:07:00;99986.09;;;6.97;91.36
41947;BME280;27638;42.184;24.848;2023-03-04T01:09:26;99983.34;;;7.09;90.67
41947;BME280;27638;42.184;24.848;2023-03-04T01:11:52;99975.34;;;7.10;90.13
41947;BME280;27638;42.184;24.848;2023-03-04T01:14:17;99972.53;;;7.02;91.62
41947;BME280;27638;42.184;24.848;2023-03-04T01:16:43;99976.47;;;7.17;92.19
41947;BME280;27638;42.184;24.848;2023-03-04T01:19:08;99974.81;;;7.26;91.81
41947;BME280;27638;42.184;24.848;2023-03-04T01:21:34;99974.66;;;7.18;92.65
41947;BME280;27638;42.184;24.848;2023-03-04T01:23:59;99969.09;;;7.11;93.29
41947;BME280;27638;42.184;24.848;2023-03-04T01:26:25;99973.13;;;7.15;93.26
41947;BME280;27638;42.184;24.848;2023-03-04T01:28:50;99966.22;;;7.24;92.71
41947;BME280;27638;42.184;24.848;2023-03-04T01:31:15;99970.78;;;7.22;92.09
41947;BME280;27638;42.184;24.848;2023-03-04T01:33:41;99968.41;;;7.09;92.63
41947;BME280;27638;42.184;24.848;2023-03-04T01:36:06;99964.25;;;7.16;93.67
41947;BME280;27638;42.184;24.848;2023-03-04T01:38:32;99954.84;;;7.23;92.16
41947;BME280;27638;42.184;24.848;2023-03-04T01:40:57;99963.84;;;7.21;92.60
41947;BME280;27638;42.184;24.848;2023-03-04T01:43:27;99961.63;;;7.16;93.10
41947;BME280;27638;42.184;24.848;2023-03-04T01:45:54;99956.22;;;7.18;93.70
41947;BME280;27638;42.184;24.848;2023-03-04T01:48:32;99957.34;;;7.25;93.06
41947;BME280;27638;42.184;24.848;2023-03-04T01:51:04;99957.75;;;7.20;91.89
41947;BME280;27638;42.184;24.848;2023-03-04T01:53:31;99958.69;;;7.10;92.01
41947;BME280;27638;42.184;24.848;2023-03-04T01:56:00;99952.53;;;6.90;93.57
41947;BME280;27638;42.184;24.848;2023-03-04T01:58:31;99951.56;;;6.91;94.48
41947;BME280;27638;42.184;24.848;2023-03-04T02:00:57;99961.59;;;7.07;91.69
41947;BME280;27638;42.184;24.848;2023-03-04T02:03:23;99951.06;;;7.07;89.72
41947;BME280;27638;42.184;24.848;2023-03-04T02:05:50;99963.34;;;6.87;88.08
41947;BME280;27638;42.184;24.848;2023-03-04T02:08:20;99963.66;;;6.63;88.77
41947;BME280;27638;42.184;24.848;2023-03-04T02:10:46;99965.66;;;6.50;89.02
41947;BME280;27638;42.184;24.848;2023-03-04T02:13:13;99966.03;;;6.66;88.99
41947;BME280;27638;42.184;24.848;2023-03-04T02:15:39;99963.81;;;6.71;88.41
41947;BME280;27638;42.184;24.848;2023-03-04T02:18:15;99954.84;;;6.73;88.69
41947;BME280;27638;42.184;24.848;2023-03-04T02:26:29;99965.97;;;6.87;88.01
41947;BME280;27638;42.184;24.848;2023-03-04T02:28:56;99959.47;;;6.91;88.93
41947;BME280;27638;42.184;24.848;2023-03-04T02:33:52;99956.66;;;6.83;89.27
41947;BME280;27638;42.184;24.848;2023-03-04T02:36:18;99946.50;;;6.68;90.16
41947;BME280;27638;42.184;24.848;2023-03-04T02:38:44;99946.91;;;6.64;90.48
41947;BME280;27638;42.184;24.848;2023-03-04T02:41:14;99936.38;;;6.64;91.70
41947;BME280;27638;42.184;24.848;2023-03-04T02:43:43;99924.22;;;6.72;92.06
41947;BME280;27638;42.184;24.848;2023-03-04T02:46:11;99932.06;;;6.63;91.48
41947;BME280;27638;42.184;24.848;2023-03-04T02:48:36;99931.28;;;6.42;91.77
41947;BME280;27638;42.184;24.848;2023-03-04T02:51:02;99935.06;;;6.49;93.47
41947;BME280;27638;42.184;24.848;2023-03-04T02:53:28;99932.34;;;6.29;92.75
41947;BME280;27638;42.184;24.848;2023-03-04T02:55:53;99923.13;;;6.24;94.60
41947;BME280;27638;42.184;24.848;2023-03-04T02:58:19;99923.53;;;6.19;95.06
41947;BME280;27638;42.184;24.848;2023-03-04T03:00:44;99919.56;;;6.25;94.67
41947;BME280;27638;42.184;24.848;2023-03-04T03:03:09;99926.88;;;6.42;94.25
41947;BME280;27638;42.184;24.848;2023-03-04T03:05:36;99936.50;;;6.62;93.45
41947;BME280;27638;42.184;24.848;2023-03-04T03:08:02;99937.78;;;6.68;92.86
41947;BME280;27638;42.184;24.848;2023-03-04T03:10:27;99946.81;;;6.75;91.78
41947;BME280;27638;42.184;24.848;2023-03-04T03:12:53;99948.59;;;6.75;90.55
41947;BME280;27638;42.184;24.848;2023-03-04T03:15:19;99950.41;;;6.74;89.73
41947;BME280;27638;42.184;24.848;2023-03-04T03:17:44;99956.50;;;6.75;90.82
41947;BME280;27638;42.184;24.848;2023-03-04T03:20:11;99957.91;;;6.79;90.68
41947;BME280;27638;42.184;24.848;2023-03-04T03:22:37;99963.97;;;6.69;91.19
41947;BME280;27638;42.184;24.848;2023-03-04T03:25:04;99961.38;;;6.79;90.95
41947;BME280;27638;42.184;24.848;2023-03-04T03:27:29;99962.19;;;6.80;90.61
41947;BME280;27638;42.184;24.848;2023-03-04T03:29:55;99963.88;;;6.81;90.79
41947;BME280;27638;42.184;24.848;2023-03-04T03:32:21;99968.66;;;6.66;90.75
41947;BME280;27638;42.184;24.848;2023-03-04T03:34:46;99956.63;;;6.43;91.59
41947;BME280;27638;42.184;24.848;2023-03-04T03:37:12;99963.06;;;6.29;93.07
41947;BME280;27638;42.184;24.848;2023-03-04T03:39:37;99958.59;;;6.08;93.72
41947;BME280;27638;42.184;24.848;2023-03-04T03:42:03;99960.16;;;6.32;93.93
41947;BME280;27638;42.184;24.848;2023-03-04T03:44:28;99958.25;;;6.34;93.09
41947;BME280;27638;42.184;24.848;2023-03-04T03:46:54;99955.09;;;6.40;93.07
41947;BME280;27638;42.184;24.848;2023-03-04T03:49:19;99961.00;;;6.32;93.99
41947;BME280;27638;42.184;24.848;2023-03-04T03:51:45;99953.03;;;6.44;92.94
41947;BME280;27638;42.184;24.848;2023-03-04T03:54:10;99954.63;;;6.56;92.74
41947;BME280;27638;42.184;24.848;2023-03-04T03:56:35;99952.81;;;6.56;92.12
41947;BME280;27638;42.184;24.848;2023-03-04T03:59:01;99956.06;;;6.39;92.16
41947;BME280;27638;42.184;24.848;2023-03-04T04:01:26;99948.72;;;6.01;92.70
41947;BME280;27638;42.184;24.848;2023-03-04T04:03:52;99955.06;;;5.98;92.98
41947;BME280;27638;42.184;24.848;2023-03-04T04:06:18;99952.78;;;6.05;94.17
41947;BME280;27638;42.184;24.848;2023-03-04T04:08:43;99952.25;;;6.11;93.47
41947;BME280;27638;42.184;24.848;2023-03-04T04:11:10;99943.34;;;6.02;93.79
41947;BME280;27638;42.184;24.848;2023-03-04T04:13:36;99956.03;;;6.18;92.72
41947;BME280;27638;42.184;24.848;2023-03-04T04:16:01;99946.16;;;5.90;94.31
41947;BME280;27638;42.184;24.848;2023-03-04T04:18:27;99949.00;;;5.11;98.57
41947;BME280;27638;42.184;24.848;2023-03-04T04:20:52;99957.81;;;5.33;97.96
41947;BME280;27638;42.184;24.848;2023-03-04T04:23:18;99959.03;;;5.29;97.29
41947;BME280;27638;42.184;24.848;2023-03-04T04:25:44;99961.75;;;5.38;97.72
41947;BME280;27638;42.184;24.848;2023-03-04T04:28:09;99959.13;;;5.38;97.75
41947;BME280;27638;42.184;24.848;2023-03-04T04:30:35;99957.56;;;5.36;97.81
41947;BME280;27638;42.184;24.848;2023-03-04T04:33:00;99954.19;;;5.45;99.19
41947;BME280;27638;42.184;24.848;2023-03-04T04:35:29;99947.69;;;5.60;98.95
41947;BME280;27638;42.184;24.848;2023-03-04T04:37:55;99959.50;;;5.66;98.46
41947;BME280;27638;42.184;24.848;2023-03-04T04:40:21;99966.38;;;5.78;97.26
41947;BME280;27638;42.184;24.848;2023-03-04T04:42:46;99965.28;;;5.92;96.68
41947;BME280;27638;42.184;24.848;2023-03-04T04:45:12;99970.75;;;5.89;96.18
41947;BME280;27638;42.184;24.848;2023-03-04T04:47:37;99982.06;;;5.68;97.87
41947;BME280;27638;42.184;24.848;2023-03-04T04:50:03;99974.22;;;5.57;98.90
41947;BME280;27638;42.184;24.848;2023-03-04T04:52:29;99980.13;;;5.70;99.32
41947;BME280;27638;42.184;24.848;2023-03-04T04:54:54;99975.22;;;5.77;98.34
41947;BME280;27638;42.184;24.848;2023-03-04T04:57:20;99973.00;;;5.61;98.35
41947;BME280;27638;42.184;24.848;2023-03-04T04:59:46;99974.22;;;5.57;99.78
41947;BME280;27638;42.184;24.848;2023-03-04T05:02:11;99976.72;;;5.59;100.00
41947;BME280;27638;42.184;24.848;2023-03-04T05:04:37;99973.41;;;5.77;100.00
41947;BME280;27638;42.184;24.848;2023-03-04T05:07:02;99987.97;;;5.93;100.00
41947;BME280;27638;42.184;24.848;2023-03-04T05:09:27;99983.47;;;6.04;99.42
41947;BME280;27638;42.184;24.848;2023-03-04T05:11:53;99982.44;;;5.96;99.17
41947;BME280;27638;42.184;24.848;2023-03-04T05:14:18;99979.38;;;6.12;99.16
41947;BME280;27638;42.184;24.848;2023-03-04T05:16:44;99981.50;;;6.18;98.56
41947;BME280;27638;42.184;24.848;2023-03-04T05:19:09;99983.88;;;6.21;99.15
41947;BME280;27638;42.184;24.848;2023-03-04T05:21:35;99991.72;;;6.32;99.10
41947;BME280;27638;42.184;24.848;2023-03-04T05:24:00;99999.31;;;5.93;99.45
41947;BME280;27638;42.184;24.848;2023-03-04T05:26:26;99996.63;;;6.04;99.83
41947;BME280;27638;42.184;24.848;2023-03-04T05:28:51;99994.75;;;6.27;100.00
41947;BME280;27638;42.184;24.848;2023-03-04T05:31:17;99993.22;;;6.25;99.73
41947;BME280;27638;42.184;24.848;2023-03-04T05:33:42;99993.06;;;6.26;99.84
41947;BME280;27638;42.184;24.848;2023-03-04T05:36:08;99983.13;;;6.30;100.00
41947;BME280;27638;42.184;24.848;2023-03-04T05:38:34;99992.38;;;6.45;98.94
41947;BME280;27638;42.184;24.848;2023-03-04T05:41:02;99996.41;;;6.49;98.88
41947;BME280;27638;42.184;24.848;2023-03-04T05:43:29;99996.06;;;6.63;98.49
41947;BME280;27638;42.184;24.848;2023-03-04T05:45:55;100001.25;;;6.75;98.75
41947;BME280;27638;42.184;24.848;2023-03-04T05:48:20;99987.03;;;6.87;97.46
41947;BME280;27638;42.184;24.848;2023-03-04T05:50:46;99989.53;;;6.88;97.40
41947;BME280;27638;42.184;24.848;2023-03-04T05:53:12;99984.66;;;6.84;96.59
41947;BME280;27638;42.184;24.848;2023-03-04T05:55:37;99986.16;;;6.25;98.81
41947;BME280;27638;42.184;24.848;2023-03-04T05:58:03;99994.75;;;5.95;100.00
41947;BME280;27638;42.184;24.848;2023-03-04T06:00:28;99995.66;;;5.73;100.00
41947;BME280;27638;42.184;24.848;2023-03-04T06:02:54;99998.25;;;6.17;100.00
41947;BME280;27638;42.184;24.848;2023-03-04T06:05:19;99993.13;;;6.36;100.00
41947;BME280;27638;42.184;24.848;2023-03-04T06:07:45;99996.31;;;6.60;100.00
41947;BME280;27638;42.184;24.848;2023-03-04T06:10:13;100003.75;;;6.76;98.88
41947;BME280;27638;42.184;24.848;2023-03-04T06:12:39;100010.81;;;6.76;98.51
41947;BME280;27638;42.184;24.848;2023-03-04T06:15:05;100014.75;;;6.91;98.78
41947;BME280;27638;42.184;24.848;2023-03-04T06:17:31;100021.13;;;6.88;98.35
41947;BME280;27638;42.184;24.848;2023-03-04T06:19:57;100008.22;;;6.85;99.98
41947;BME280;27638;42.184;24.848;2023-03-04T06:22:22;100008.53;;;6.92;99.39
41947;BME280;27638;42.184;24.848;2023-03-04T06:24:48;100014.66;;;7.02;99.37
41947;BME280;27638;42.184;24.848;2023-03-04T06:27:14;100031.56;;;6.99;98.90
41947;BME280;27638;42.184;24.848;2023-03-04T06:29:41;100022.97;;;6.97;99.25
41947;BME280;27638;42.184;24.848;2023-03-04T06:32:06;100016.16;;;6.95;99.42
41947;BME280;27638;42.184;24.848;2023-03-04T06:34:32;100028.53;;;7.04;98.53
41947;BME280;27638;42.184;24.848;2023-03-04T06:36:58;100027.72;;;7.13;99.46
41947;BME280;27638;42.184;24.848;2023-03-04T06:39:25;100033.53;;;7.07;98.87
41947;BME280;27638;42.184;24.848;2023-03-04T06:41:50;100028.72;;;7.22;98.83
41947;BME280;27638;42.184;24.848;2023-03-04T06:44:16;100040.84;;;7.34;97.29
41947;BME280;27638;42.184;24.848;2023-03-04T06:46:41;100046.81;;;7.36;97.62
41947;BME280;27638;42.184;24.848;2023-03-04T06:49:07;100038.94;;;7.46;96.51
41947;BME280;27638;42.184;24.848;2023-03-04T06:51:32;100040.75;;;7.45;96.10
41947;BME280;27638;42.184;24.848;2023-03-04T06:53:58;100051.03;;;7.48;96.23
41947;BME280;27638;42.184;24.848;2023-03-04T06:56:23;100038.13;;;7.55;95.72
41947;BME280;27638;42.184;24.848;2023-03-04T06:58:49;100041.75;;;7.54;96.04
41947;BME280;27638;42.184;24.848;2023-03-04T07:03:45;100043.84;;;7.60;96.00
41947;BME280;27638;42.184;24.848;2023-03-04T07:06:13;100046.06;;;7.64;96.55
41947;BME280;27638;42.184;24.848;2023-03-04T07:08:40;100052.44;;;7.62;97.13
41947;BME280;27638;42.184;24.848;2023-03-04T07:11:05;100046.59;;;7.58;97.26
41947;BME280;27638;42.184;24.848;2023-03-04T07:13:31;100043.84;;;7.60;97.76
41947;BME280;27638;42.184;24.848;2023-03-04T07:15:59;100048.97;;;7.61;95.89
41947;BME280;27638;42.184;24.848;2023-03-04T07:18:24;100050.63;;;7.62;96.51
41947;BME280;27638;42.184;24.848;2023-03-04T07:20:53;100042.72;;;7.62;96.52
41947;BME280;27638;42.184;24.848;2023-03-04T07:23:19;100049.25;;;7.68;97.07
41947;BME280;27638;42.184;24.848;2023-03-04T07:25:45;100044.00;;;7.78;98.45
41947;BME280;27638;42.184;24.848;2023-03-04T07:28:10;100037.75;;;7.79;97.38
41947;BME280;27638;42.184;24.848;2023-03-04T07:30:36;100038.59;;;7.79;96.24
41947;BME280;27638;42.184;24.848;2023-03-04T07:33:01;100039.00;;;7.84;96.45
41947;BME280;27638;42.184;24.848;2023-03-04T07:35:27;100042.34;;;7.96;96.85
41947;BME280;27638;42.184;24.848;2023-03-04T07:37:52;100030.97;;;7.95;97.07
41947;BME280;27638;42.184;24.848;2023-03-04T07:40:18;100032.78;;;7.95;97.04
41947;BME280;27638;42.184;24.848;2023-03-04T07:42:51;100026.94;;;7.91;97.49
41947;BME280;27638;42.184;24.848;2023-03-04T07:45:17;100022.22;;;7.95;96.31
41947;BME280;27638;42.184;24.848;2023-03-04T07:47:43;100020.56;;;8.04;96.18
41947;BME280;27638;42.184;24.848;2023-03-04T07:50:10;100024.31;;;8.11;96.55
41947;BME280;27638;42.184;24.848;2023-03-04T07:52:39;100016.81;;;8.06;96.87
41947;BME280;27638;42.184;24.848;2023-03-04T07:55:06;100019.16;;;8.09;97.28
41947;BME280;27638;42.184;24.848;2023-03-04T07:57:32;100016.81;;;8.06;97.14
41947;BME280;27638;42.184;24.848;2023-03-04T07:59:57;100014.47;;;8.03;97.43
41947;BME280;27638;42.184;24.848;2023-03-04T08:02:22;100008.22;;;7.94;98.61
41947;BME280;27638;42.184;24.848;2023-03-04T08:04:48;100015.00;;;7.97;98.52
41947;BME280;27638;42.184;24.848;2023-03-04T08:07:13;100015.28;;;8.04;98.45
41947;BME280;27638;42.184;24.848;2023-03-04T08:09:39;100014.47;;;7.93;99.30
41947;BME280;27638;42.184;24.848;2023-03-04T08:12:04;100020.84;;;8.00;99.93
41947;BME280;27638;42.184;24.848;2023-03-04T08:14:30;100018.19;;;8.20;99.14
41947;BME280;27638;42.184;24.848;2023-03-04T08:16:55;100015.41;;;8.31;98.45
41947;BME280;27638;42.184;24.848;2023-03-04T08:19:21;100012.06;;;8.29;98.08
41947;BME280;27638;42.184;24.848;2023-03-04T08:21:46;100010.97;;;8.31;98.21
41947;BME280;27638;42.184;24.848;2023-03-04T08:24:12;100012.97;;;8.39;98.44
41947;BME280;27638;42.184;24.848;2023-03-04T08:26:44;100005.31;;;8.36;98.79
41947;BME280;27638;42.184;24.848;2023-03-04T08:29:19;100004.06;;;8.40;99.07
41947;BME280;27638;42.184;24.848;2023-03-04T08:31:46;100016.00;;;8.44;98.90
41947;BME280;27638;42.184;24.848;2023-03-04T08:34:12;100015.88;;;8.46;99.23
41947;BME280;27638;42.184;24.848;2023-03-04T08:36:40;100024.44;;;8.57;98.56
41947;BME280;27638;42.184;24.848;2023-03-04T08:39:07;100021.25;;;8.54;98.87
41947;BME280;27638;42.184;24.848;2023-03-04T08:41:32;100023.75;;;8.65;99.93
41947;BME280;27638;42.184;24.848;2023-03-04T08:43:58;100030.13;;;8.62;99.10
41947;BME280;27638;42.184;24.848;2023-03-04T08:46:24;100034.31;;;8.55;99.23
41947;BME280;27638;42.184;24.848;2023-03-04T08:48:50;100027.09;;;8.57;99.37
41947;BME280;27638;42.184;24.848;2023-03-04T08:51:15;100029.41;;;8.70;99.82
41947;BME280;27638;42.184;24.848;2023-03-04T08:53:42;100024.50;;;8.85;99.68
41947;BME280;27638;42.184;24.848;2023-03-04T08:56:08;100021.59;;;8.88;99.37
41947;BME280;27638;42.184;24.848;2023-03-04T08:58:34;100020.75;;;8.87;99.44
41947;BME280;27638;42.184;24.848;2023-03-04T09:01:00;100022.53;;;8.96;98.13
41947;BME280;27638;42.184;24.848;2023-03-04T09:03:26;100015.81;;;9.02;98.30
41947;BME280;27638;42.184;24.848;2023-03-04T09:05:52;100009.97;;;9.08;98.39
41947;BME280;27638;42.184;24.848;2023-03-04T09:08:17;100013.88;;;9.04;99.47
41947;BME280;27638;42.184;24.848;2023-03-04T09:10:45;100007.56;;;9.15;98.32
41947;BME280;27638;42.184;24.848;2023-03-04T09:13:12;100005.47;;;9.18;98.31
41947;BME280;27638;42.184;24.848;2023-03-04T09:15:48;99997.44;;;9.10;98.53
41947;BME280;27638;42.184;24.848;2023-03-04T09:18:14;99997.38;;;9.20;99.31
41947;BME280;27638;42.184;24.848;2023-03-04T09:20:40;99999.78;;;9.13;99.96
41947;BME280;27638;42.184;24.848;2023-03-04T09:23:05;100002.97;;;9.17;100.00
41947;BME280;27638;42.184;24.848;2023-03-04T09:25:32;99995.91;;;9.35;99.89
41947;BME280;27638;42.184;24.848;2023-03-04T09:27:57;99991.06;;;9.40;97.92
41947;BME280;27638;42.184;24.848;2023-03-04T09:30:23;99993.72;;;9.31;98.30
41947;BME280;27638;42.184;24.848;2023-03-04T09:32:48;99990.88;;;9.14;100.00
41947;BME280;27638;42.184;24.848;2023-03-04T09:35:14;99986.81;;;8.92;100.00
41947;BME280;27638;42.184;24.848;2023-03-04T09:37:39;99985.34;;;8.80;100.00
41947;BME280;27638;42.184;24.848;2023-03-04T09:40:05;99981.13;;;8.87;100.00
41947;BME280;27638;42.184;24.848;2023-03-04T09:42:53;99973.13;;;8.79;100.00
41947;BME280;27638;42.184;24.848;2023-03-04T09:45:22;99959.38;;;8.76;100.00
41947;BME280;27638;42.184;24.848;2023-03-04T09:47:51;99968.00;;;8.68;100.00
41947;BME280;27638;42.184;24.848;2023-03-04T09:50:19;99964.06;;;8.82;100.00
41947;BME280;27638;42.184;24.848;2023-03-04T09:55:35;99966.47;;;9.03;100.00
41947;BME280;27638;42.184;24.848;2023-03-04T10:01:21;99959.22;;;9.32;100.00
41947;BME280;27638;42.184;24.848;2023-03-04T10:03:54;99961.75;;;9.51;100.00
41947;BME280;27638;42.184;24.848;2023-03-04T10:06:23;99953.91;;;9.59;100.00
41947;BME280;27638;42.184;24.848;2023-03-04T10:11:34;99954.41;;;9.99;97.96
41947;BME280;27638;42.184;24.848;2023-03-04T10:14:15;99956.88;;;10.18;98.35
41947;BME280;27638;42.184;24.848;2023-03-04T10:16:50;99953.72;;;10.32;96.81
41947;BME280;27638;42.184;24.848;2023-03-04T10:22:41;99950.34;;;10.74;93.43
41947;BME280;27638;42.184;24.848;2023-03-04T10:25:26;99943.94;;;10.84;95.63
41947;BME280;27638;42.184;24.848;2023-03-04T10:27:53;99942.78;;;10.87;93.22
41947;BME280;27638;42.184;24.848;2023-03-04T10:32:59;99930.44;;;11.04;92.45
41947;BME280;27638;42.184;24.848;2023-03-04T10:35:29;99921.31;;;10.98;94.54
41947;BME280;27638;42.184;24.848;2023-03-04T10:38:01;99915.97;;;10.90;93.78
41947;BME280;27638;42.184;24.848;2023-03-04T10:40:27;99914.69;;;11.02;92.08
41947;BME280;27638;42.184;24.848;2023-03-04T10:42:53;99904.41;;;10.99;92.67
41947;BME280;27638;42.184;24.848;2023-03-04T10:45:23;99904.94;;;11.03;94.50
41947;BME280;27638;42.184;24.848;2023-03-04T10:47:54;99902.28;;;11.03;94.96
41947;BME280;27638;42.184;24.848;2023-03-04T10:50:24;99900.59;;;10.94;96.42
41947;BME280;27638;42.184;24.848;2023-03-04T10:52:50;99893.56;;;10.76;97.57
41947;BME280;27638;42.184;24.848;2023-03-04T10:57:51;99890.13;;;10.84;97.97
41947;BME280;27638;42.184;24.848;2023-03-04T11:00:30;99886.19;;;10.96;97.19
41947;BME280;27638;42.184;24.848;2023-03-04T11:03:34;99875.66;;;11.20;97.86
41947;BME280;27638;42.184;24.848;2023-03-04T11:06:10;99870.66;;;11.09;98.24
41947;BME280;27638;42.184;24.848;2023-03-04T11:08:39;99871.44;;;10.85;96.42
41947;BME280;27638;42.184;24.848;2023-03-04T11:11:30;99868.44;;;10.88;97.76
41947;BME280;27638;42.184;24.848;2023-03-04T11:14:01;99850.56;;;10.91;99.90
41947;BME280;27638;42.184;24.848;2023-03-04T11:16:30;99847.41;;;10.87;100.00
41947;BME280;27638;42.184;24.848;2023-03-04T11:19:05;99840.13;;;10.81;100.00
41947;BME280;27638;42.184;24.848;2023-03-04T11:21:38;99831.03;;;10.92;100.00
41947;BME280;27638;42.184;24.848;2023-03-04T11:24:13;99836.00;;;10.95;99.45
41947;BME280;27638;42.184;24.848;2023-03-04T11:26:46;99830.38;;;10.90;100.00
41947;BME280;27638;42.184;24.848;2023-03-04T11:29:24;99826.41;;;10.94;100.00
41947;BME280;27638;42.184;24.848;2023-03-04T11:34:38;99825.09;;;11.06;99.02
41947;BME280;27638;42.184;24.848;2023-03-04T11:37:34;99818.97;;;10.97;100.00
41947;BME280;27638;42.184;24.848;2023-03-04T11:40:09;99823.59;;;10.95;100.00
41947;BME280;27638;42.184;24.848;2023-03-04T11:42:51;99821.94;;;10.94;100.00
41947;BME280;27638;42.184;24.848;2023-03-04T11:45:21;99821.94;;;10.94;100.00
41947;BME280;27638;42.184;24.848;2023-03-04T11:48:11;99818.16;;;11.05;99.15
41947;BME280;27638;42.184;24.848;2023-03-04T11:50:53;99820.16;;;11.19;99.57
41947;BME280;27638;42.184;24.848;2023-03-04T11:53:49;99808.38;;;11.05;97.60
41947;BME280;27638;42.184;24.848;2023-03-04T12:01:58;99803.91;;;11.06;96.32
41947;BME280;27638;42.184;24.848;2023-03-04T12:15:24;99786.53;;;11.03;97.79
41947;BME280;27638;42.184;24.848;2023-03-04T12:18:11;99787.03;;;11.23;94.40
41947;BME280;27638;42.184;24.848;2023-03-04T12:21:03;99785.03;;;11.25;97.03
41947;BME280;27638;42.184;24.848;2023-03-04T12:26:32;99780.72;;;11.16;96.12
41947;BME280;27638;42.184;24.848;2023-03-04T12:31:48;99768.97;;;11.27;96.00
41947;BME280;27638;42.184;24.848;2023-03-04T12:43:12;99770.63;;;11.36;96.29
41947;BME280;27638;42.184;24.848;2023-03-04T12:49:29;99757.53;;;11.59;93.61
41947;BME280;27638;42.184;24.848;2023-03-04T12:51:39;99753.25;;;11.58;94.68
41947;BME280;27638;42.184;24.848;2023-03-04T12:56:54;99752.56;;;11.56;91.92
41947;BME280;27638;42.184;24.848;2023-03-04T12:59:22;99746.75;;;11.68;90.83
41947;BME280;27638;42.184;24.848;2023-03-04T13:10:15;99731.16;;;11.73;93.04
41947;BME280;27638;42.184;24.848;2023-03-04T13:12:53;99730.47;;;11.96;93.04
41947;BME280;27638;42.184;24.848;2023-03-04T13:15:34;99730.47;;;11.96;91.51
41947;BME280;27638;42.184;24.848;2023-03-04T13:18:03;99720.66;;;11.96;92.91
41947;BME280;27638;42.184;24.848;2023-03-04T13:23:22;99719.44;;;12.15;91.04
41947;BME280;27638;42.184;24.848;2023-03-04T13:41:24;99697.91;;;12.41;87.01
41947;BME280;27638;42.184;24.848;2023-03-04T13:44:02;99696.06;;;12.41;88.54
41947;BME280;27638;42.184;24.848;2023-03-04T13:46:47;99691.31;;;12.29;86.16
41947;BME280;27638;42.184;24.848;2023-03-04T13:49:20;99685.88;;;12.22;88.41
41947;BME280;27638;42.184;24.848;2023-03-04T13:51:46;99692.16;;;12.29;87.59
41947;BME280;27638;42.184;24.848;2023-03-04T13:54:22;99692.75;;;12.39;87.52
41947;BME280;27638;42.184;24.848;2023-03-04T14:02:02;99684.59;;;12.49;88.56
41947;BME280;27638;42.184;24.848;2023-03-04T14:04:30;99667.97;;;12.55;87.84
41947;BME280;27638;42.184;24.848;2023-03-04T14:06:58;99678.22;;;12.58;86.82
41947;BME280;27638;42.184;24.848;2023-03-04T14:09:26;99677.47;;;12.41;85.59
41947;BME280;27638;42.184;24.848;2023-03-04T14:11:54;99677.06;;;12.30;85.45
41947;BME280;27638;42.184;24.848;2023-03-04T14:14:30;99677.66;;;12.40;87.14
41947;BME280;27638;42.184;24.848;2023-03-04T14:17:02;99669.25;;;12.28;85.72
41947;BME280;27638;42.184;24.848;2023-03-04T14:19:31;99667.22;;;12.38;84.85
41947;BME280;27638;42.184;24.848;2023-03-04T14:21:59;99667.84;;;12.49;84.92
41947;BME280;27638;42.184;24.848;2023-03-04T14:24:24;99666.13;;;12.56;85.28
41947;BME280;27638;42.184;24.848;2023-03-04T14:27:12;99668.69;;;12.41;83.01
41947;BME280;27638;42.184;24.848;2023-03-04T14:29:38;99661.41;;;12.35;83.83
41947;BME280;27638;42.184;24.848;2023-03-04T14:32:05;99660.25;;;12.37;84.46
41947;BME280;27638;42.184;24.848;2023-03-04T14:34:33;99652.75;;;12.41;84.64
41947;BME280;27638;42.184;24.848;2023-03-04T14:37:01;99655.22;;;12.42;85.18
41947;BME280;27638;42.184;24.848;2023-03-04T14:39:32;99655.88;;;12.44;83.35